sensor_id;sensor_type;location;lat;lon;timestamp;pressure;altitude;pressure_sealevel;temperature;humidity
11971;BME280;6045;42.682;23.294;2023-07-02T00:02:02;94028.94;;;21.07;74.56
11971;BME280;6045;42.682;23.294;2023-07-02T00:04:29;94032.16;;;21.09;74.35
11971;BME280;6045;42.682;23.294;2023-07-02T00:06:56;94029.19;;;21.19;74.66
11971;BME280;6045;42.682;23.294;2023-07-02T00:09:23;94026.97;;;21.21;74.15
11971;BME280;6045;42.682;23.294;2023-07-02T00:11:49;94020.09;;;21.24;73.83
11971;BME280;6045;42.682;23.294;2023-07-02T00:14:16;94024.59;;;21.06;75.25
11971;BME280;6045;42.682;23.294;2023-07-02T00:16:45;94014.75;;;21.10;74.88
11971;BME280;6045;42.682;23.294;2023-07-02T00:19:13;94018.91;;;21.16;74.75
11971;BME280;6045;42.682;23.294;2023-07-02T00:21:40;94001.19;;;21.19;74.35
11971;BME280;6045;42.682;23.294;2023-07-02T00:24:08;94011.25;;;21.18;74.02
11971;BME280;6045;42.682;23.294;2023-07-02T00:26:35;94007.59;;;21.23;74.89
11971;BME280;6045;42.682;23.294;2023-07-02T00:29:03;94013.53;;;21.25;74.18
11971;BME280;6045;42.682;23.294;2023-07-02T00:31:31;94026.84;;;21.26;74.65
11971;BME280;6045;42.682;23.294;2023-07-02T00:34:00;94017.53;;;21.27;74.34
11971;BME280;6045;42.682;23.294;2023-07-02T00:36:27;94028.13;;;21.29;75.10
11971;BME280;6045;42.682;23.294;2023-07-02T00:38:54;94037.47;;;21.14;74.98
11971;BME280;6045;42.682;23.294;2023-07-02T00:41:21;94027.19;;;21.11;75.25
11971;BME280;6045;42.682;23.294;2023-07-02T00:43:48;94034.25;;;21.12;75.34
11971;BME280;6045;42.682;23.294;2023-07-02T00:46:16;94029.63;;;21.13;75.84
11971;BME280;6045;42.682;23.294;2023-07-02T00:48:46;94034.75;;;21.14;75.36
11971;BME280;6045;42.682;23.294;2023-07-02T00:51:16;94038.38;;;21.09;75.91
11971;BME280;6045;42.682;23.294;2023-07-02T00:53:44;94040.38;;;21.04;75.77
11971;BME280;6045;42.682;23.294;2023-07-02T00:56:11;94033.47;;;20.98;76.09
11971;BME280;6045;42.682;23.294;2023-07-02T00:58:40;94031.34;;;20.73;77.93
11971;BME280;6045;42.682;23.294;2023-07-02T01:01:12;94030.34;;;20.69;77.50
11971;BME280;6045;42.682;23.294;2023-07-02T01:03:39;94021.72;;;20.67;77.31
11971;BME280;6045;42.682;23.294;2023-07-02T01:06:06;94024.31;;;20.72;78.04
11971;BME280;6045;42.682;23.294;2023-07-02T01:08:34;94020.47;;;20.73;77.57
11971;BME280;6045;42.682;23.294;2023-07-02T01:11:01;94016.66;;;20.74;78.09
11971;BME280;6045;42.682;23.294;2023-07-02T01:13:28;94007.59;;;20.78;77.29
11971;BME280;6045;42.682;23.294;2023-07-02T01:15:55;94021.59;;;20.72;76.76
11971;BME280;6045;42.682;23.294;2023-07-02T01:18:22;94021.50;;;20.77;77.66
11971;BME280;6045;42.682;23.294;2023-07-02T01:20:51;94020.25;;;20.83;77.49
11971;BME280;6045;42.682;23.294;2023-07-02T01:23:19;94017.28;;;20.93;76.37
11971;BME280;6045;42.682;23.294;2023-07-02T01:25:47;94012.97;;;20.92;76.18
11971;BME280;6045;42.682;23.294;2023-07-02T01:28:13;93996.03;;;20.95;76.09
11971;BME280;6045;42.682;23.294;2023-07-02T01:30:40;93981.22;;;20.79;76.79
11971;BME280;6045;42.682;23.294;2023-07-02T01:33:07;93995.38;;;20.67;77.68
11971;BME280;6045;42.682;23.294;2023-07-02T01:35:34;94004.72;;;20.39;77.86
11971;BME280;6045;42.682;23.294;2023-07-02T01:38:02;94001.88;;;20.30;78.93
11971;BME280;6045;42.682;23.294;2023-07-02T01:40:29;94004.75;;;20.25;78.99
11971;BME280;6045;42.682;23.294;2023-07-02T01:42:55;94002.59;;;20.36;79.30
11971;BME280;6045;42.682;23.294;2023-07-02T01:45:22;94008.09;;;20.44;79.86
11971;BME280;6045;42.682;23.294;2023-07-02T01:47:49;93994.84;;;20.43;79.15
11971;BME280;6045;42.682;23.294;2023-07-02T01:50:16;93999.84;;;20.50;79.13
11971;BME280;6045;42.682;23.294;2023-07-02T01:52:42;94005.25;;;20.63;79.54
11971;BME280;6045;42.682;23.294;2023-07-02T01:55:11;94005.25;;;20.50;80.25
11971;BME280;6045;42.682;23.294;2023-07-02T01:57:37;93990.22;;;20.43;80.57
11971;BME280;6045;42.682;23.294;2023-07-02T02:00:05;93985.38;;;20.40;80.85
11971;BME280;6045;42.682;23.294;2023-07-02T02:02:34;93988.31;;;20.30;82.47
11971;BME280;6045;42.682;23.294;2023-07-02T02:05:01;93974.97;;;20.20;82.76
11971;BME280;6045;42.682;23.294;2023-07-02T02:07:27;93979.78;;;20.23;81.79
11971;BME280;6045;42.682;23.294;2023-07-02T02:09:54;93988.53;;;20.20;82.74
11971;BME280;6045;42.682;23.294;2023-07-02T02:12:22;93989.25;;;19.99;82.80
11971;BME280;6045;42.682;23.294;2023-07-02T02:14:49;93977.22;;;19.91;83.44
11971;BME280;6045;42.682;23.294;2023-07-02T02:17:16;93994.50;;;19.82;83.13
11971;BME280;6045;42.682;23.294;2023-07-02T02:19:43;93983.84;;;19.85;84.20
11971;BME280;6045;42.682;23.294;2023-07-02T02:22:09;93984.03;;;20.02;83.00
11971;BME280;6045;42.682;23.294;2023-07-02T02:24:36;93980.00;;;20.13;81.89
11971;BME280;6045;42.682;23.294;2023-07-02T02:27:03;93971.13;;;20.21;81.44
11971;BME280;6045;42.682;23.294;2023-07-02T02:29:32;93976.47;;;20.26;81.15
11971;BME280;6045;42.682;23.294;2023-07-02T02:31:58;93971.53;;;20.28;81.37
11971;BME280;6045;42.682;23.294;2023-07-02T02:34:25;93961.31;;;20.25;81.07
11971;BME280;6045;42.682;23.294;2023-07-02T02:36:52;93961.31;;;20.25;81.26
11971;BME280;6045;42.682;23.294;2023-07-02T02:39:20;93972.53;;;20.19;81.64
11971;BME280;6045;42.682;23.294;2023-07-02T02:41:47;93964.72;;;20.17;80.75
11971;BME280;6045;42.682;23.294;2023-07-02T02:44:14;93958.50;;;20.03;80.71
11971;BME280;6045;42.682;23.294;2023-07-02T02:46:42;93963.97;;;19.90;80.68
11971;BME280;6045;42.682;23.294;2023-07-02T02:49:09;93961.34;;;19.85;80.65
11971;BME280;6045;42.682;23.294;2023-07-02T02:51:35;93980.22;;;19.90;80.53
11971;BME280;6045;42.682;23.294;2023-07-02T02:54:02;93979.84;;;19.83;80.90
11971;BME280;6045;42.682;23.294;2023-07-02T02:56:29;93988.38;;;19.90;81.42
11971;BME280;6045;42.682;23.294;2023-07-02T02:58:56;93990.84;;;20.00;80.11
11971;BME280;6045;42.682;23.294;2023-07-02T03:01:23;93988.66;;;20.02;79.61
11971;BME280;6045;42.682;23.294;2023-07-02T03:03:51;93984.94;;;20.11;78.68
11971;BME280;6045;42.682;23.294;2023-07-02T03:06:17;93979.38;;;20.16;78.13
11971;BME280;6045;42.682;23.294;2023-07-02T03:08:44;93979.50;;;20.25;77.06
11971;BME280;6045;42.682;23.294;2023-07-02T03:11:11;93982.88;;;20.30;78.38
11971;BME280;6045;42.682;23.294;2023-07-02T03:13:38;93980.56;;;20.37;78.79
11971;BME280;6045;42.682;23.294;2023-07-02T03:16:04;93972.78;;;20.44;78.38
11971;BME280;6045;42.682;23.294;2023-07-02T03:18:31;93978.13;;;20.50;76.97
11971;BME280;6045;42.682;23.294;2023-07-02T03:20:59;93978.22;;;20.44;77.35
11971;BME280;6045;42.682;23.294;2023-07-02T03:23:26;94003.78;;;20.43;77.91
11971;BME280;6045;42.682;23.294;2023-07-02T03:25:53;94008.38;;;20.57;81.08
11971;BME280;6045;42.682;23.294;2023-07-02T03:28:20;94006.50;;;20.79;81.55
11971;BME280;6045;42.682;23.294;2023-07-02T03:30:47;94014.13;;;20.99;80.19
11971;BME280;6045;42.682;23.294;2023-07-02T03:33:14;94000.25;;;21.23;77.52
11971;BME280;6045;42.682;23.294;2023-07-02T03:35:40;93999.22;;;21.41;76.00
11971;BME280;6045;42.682;23.294;2023-07-02T03:38:09;93998.84;;;21.56;75.15
11971;BME280;6045;42.682;23.294;2023-07-02T03:40:35;94004.50;;;21.68;74.22
11971;BME280;6045;42.682;23.294;2023-07-02T03:43:02;94007.25;;;21.77;73.44
11971;BME280;6045;42.682;23.294;2023-07-02T03:45:29;94006.78;;;21.83;72.28
11971;BME280;6045;42.682;23.294;2023-07-02T03:47:56;94002.06;;;21.98;72.20
11971;BME280;6045;42.682;23.294;2023-07-02T03:50:22;93993.28;;;22.09;71.78
11971;BME280;6045;42.682;23.294;2023-07-02T03:52:49;93991.06;;;22.11;71.76
11971;BME280;6045;42.682;23.294;2023-07-02T03:55:19;93984.69;;;22.24;70.54
11971;BME280;6045;42.682;23.294;2023-07-02T03:57:46;93992.03;;;22.24;70.15
11971;BME280;6045;42.682;23.294;2023-07-02T04:00:13;93989.31;;;22.15;70.90
11971;BME280;6045;42.682;23.294;2023-07-02T04:02:40;93999.25;;;22.20;70.71
11971;BME280;6045;42.682;23.294;2023-07-02T04:05:07;93993.19;;;22.23;69.54
11971;BME280;6045;42.682;23.294;2023-07-02T04:07:34;93989.47;;;22.10;70.77
11971;BME280;6045;42.682;23.294;2023-07-02T04:10:01;93985.97;;;22.18;70.00
11971;BME280;6045;42.682;23.294;2023-07-02T04:12:30;94005.31;;;22.17;68.85
11971;BME280;6045;42.682;23.294;2023-07-02T04:14:57;93995.09;;;22.31;71.11
11971;BME280;6045;42.682;23.294;2023-07-02T04:17:24;94010.34;;;22.32;69.93
11971;BME280;6045;42.682;23.294;2023-07-02T04:19:54;94020.28;;;22.36;69.21
11971;BME280;6045;42.682;23.294;2023-07-02T04:22:21;94032.94;;;22.41;70.25
11971;BME280;6045;42.682;23.294;2023-07-02T04:24:48;94024.13;;;22.53;69.41
11971;BME280;6045;42.682;23.294;2023-07-02T04:27:15;94025.78;;;22.62;69.76
11971;BME280;6045;42.682;23.294;2023-07-02T04:29:44;94030.47;;;22.70;69.56
11971;BME280;6045;42.682;23.294;2023-07-02T04:32:10;94036.06;;;22.82;68.98
11971;BME280;6045;42.682;23.294;2023-07-02T04:34:37;94036.38;;;22.89;68.71
11971;BME280;6045;42.682;23.294;2023-07-02T04:37:05;94039.13;;;22.98;68.20
11971;BME280;6045;42.682;23.294;2023-07-02T04:39:32;94046.66;;;23.01;68.64
11971;BME280;6045;42.682;23.294;2023-07-02T04:41:59;94054.81;;;22.92;68.48
11971;BME280;6045;42.682;23.294;2023-07-02T04:44:26;94053.69;;;22.85;68.29
11971;BME280;6045;42.682;23.294;2023-07-02T04:46:57;94055.63;;;22.84;68.71
11971;BME280;6045;42.682;23.294;2023-07-02T04:49:24;94054.66;;;22.89;68.10
11971;BME280;6045;42.682;23.294;2023-07-02T04:51:51;94055.47;;;22.81;67.84
11971;BME280;6045;42.682;23.294;2023-07-02T04:54:19;94058.19;;;22.72;68.99
11971;BME280;6045;42.682;23.294;2023-07-02T04:56:46;94065.22;;;22.65;69.15
11971;BME280;6045;42.682;23.294;2023-07-02T04:59:13;94067.91;;;22.56;69.12
11971;BME280;6045;42.682;23.294;2023-07-02T05:01:41;94055.69;;;22.45;68.91
11971;BME280;6045;42.682;23.294;2023-07-02T05:04:09;94065.75;;;22.36;69.44
11971;BME280;6045;42.682;23.294;2023-07-02T05:06:36;94067.47;;;22.23;69.73
11971;BME280;6045;42.682;23.294;2023-07-02T05:09:03;94067.31;;;22.20;69.90
11971;BME280;6045;42.682;23.294;2023-07-02T05:11:30;94069.06;;;22.16;70.70
11971;BME280;6045;42.682;23.294;2023-07-02T05:13:57;94064.41;;;22.16;70.55
11971;BME280;6045;42.682;23.294;2023-07-02T05:16:23;94080.59;;;22.13;70.70
11971;BME280;6045;42.682;23.294;2023-07-02T05:18:50;94078.81;;;22.08;70.62
11971;BME280;6045;42.682;23.294;2023-07-02T05:21:19;94070.63;;;22.00;70.66
11971;BME280;6045;42.682;23.294;2023-07-02T05:23:46;94070.63;;;22.00;70.76
11971;BME280;6045;42.682;23.294;2023-07-02T05:26:13;94063.56;;;21.99;71.18
11971;BME280;6045;42.682;23.294;2023-07-02T05:28:40;94065.00;;;22.05;71.90
11971;BME280;6045;42.682;23.294;2023-07-02T05:31:06;94065.34;;;22.12;71.23
11971;BME280;6045;42.682;23.294;2023-07-02T05:33:33;94065.53;;;22.07;71.51
11971;BME280;6045;42.682;23.294;2023-07-02T05:36:00;94064.03;;;22.01;73.30
11971;BME280;6045;42.682;23.294;2023-07-02T05:38:30;94075.97;;;22.22;71.92
11971;BME280;6045;42.682;23.294;2023-07-02T05:40:57;94076.94;;;22.26;70.92
11971;BME280;6045;42.682;23.294;2023-07-02T05:43:24;94082.22;;;22.14;71.37
11971;BME280;6045;42.682;23.294;2023-07-02T05:45:51;94087.19;;;22.20;71.21
11971;BME280;6045;42.682;23.294;2023-07-02T05:48:18;94088.34;;;22.28;71.36
11971;BME280;6045;42.682;23.294;2023-07-02T05:50:45;94088.38;;;22.45;70.71
11971;BME280;6045;42.682;23.294;2023-07-02T05:53:12;94085.16;;;22.43;70.81
11971;BME280;6045;42.682;23.294;2023-07-02T05:55:41;94100.13;;;22.15;70.81
11971;BME280;6045;42.682;23.294;2023-07-02T05:58:08;94091.81;;;22.11;71.16
11971;BME280;6045;42.682;23.294;2023-07-02T06:00:35;94084.88;;;22.05;71.34
11971;BME280;6045;42.682;23.294;2023-07-02T06:03:02;94089.69;;;22.08;72.20
11971;BME280;6045;42.682;23.294;2023-07-02T06:05:29;94077.59;;;22.31;72.39
11971;BME280;6045;42.682;23.294;2023-07-02T06:07:55;94077.25;;;22.72;70.27
11971;BME280;6045;42.682;23.294;2023-07-02T06:10:22;94092.03;;;22.88;69.58
11971;BME280;6045;42.682;23.294;2023-07-02T06:12:50;94072.16;;;23.22;69.48
11971;BME280;6045;42.682;23.294;2023-07-02T06:15:17;94069.28;;;23.36;67.30
11971;BME280;6045;42.682;23.294;2023-07-02T06:17:44;94071.34;;;23.22;67.90
11971;BME280;6045;42.682;23.294;2023-07-02T06:20:11;94073.75;;;23.32;67.58
11971;BME280;6045;42.682;23.294;2023-07-02T06:22:39;94057.69;;;23.56;67.38
11971;BME280;6045;42.682;23.294;2023-07-02T06:25:08;94057.66;;;23.73;66.13
11971;BME280;6045;42.682;23.294;2023-07-02T06:27:34;94057.09;;;23.97;66.00
11971;BME280;6045;42.682;23.294;2023-07-02T06:30:03;94056.78;;;24.07;65.72
11971;BME280;6045;42.682;23.294;2023-07-02T06:32:30;94059.94;;;24.17;67.05
11971;BME280;6045;42.682;23.294;2023-07-02T06:34:57;94060.31;;;24.36;65.98
11971;BME280;6045;42.682;23.294;2023-07-02T06:37:23;94058.91;;;24.60;67.11
11971;BME280;6045;42.682;23.294;2023-07-02T06:39:50;94062.84;;;24.79;65.66
11971;BME280;6045;42.682;23.294;2023-07-02T06:42:17;94052.53;;;25.05;65.79
11971;BME280;6045;42.682;23.294;2023-07-02T06:44:44;94061.13;;;25.16;65.19
11971;BME280;6045;42.682;23.294;2023-07-02T06:47:12;94047.50;;;25.28;64.03
11971;BME280;6045;42.682;23.294;2023-07-02T06:49:39;94045.63;;;25.41;62.96
11971;BME280;6045;42.682;23.294;2023-07-02T06:52:06;94044.69;;;25.57;62.67
11971;BME280;6045;42.682;23.294;2023-07-02T06:54:32;94048.13;;;25.66;62.01
11971;BME280;6045;42.682;23.294;2023-07-02T06:57:02;94052.94;;;25.69;61.94
11971;BME280;6045;42.682;23.294;2023-07-02T06:59:28;94057.97;;;25.79;62.47
11971;BME280;6045;42.682;23.294;2023-07-02T07:01:58;94062.91;;;25.86;61.48
11971;BME280;6045;42.682;23.294;2023-07-02T07:04:26;94057.69;;;25.93;60.00
11971;BME280;6045;42.682;23.294;2023-07-02T07:06:53;94064.31;;;26.04;60.50
11971;BME280;6045;42.682;23.294;2023-07-02T07:09:21;94066.53;;;26.23;59.59
11971;BME280;6045;42.682;23.294;2023-07-02T07:11:48;94060.03;;;26.27;57.82
11971;BME280;6045;42.682;23.294;2023-07-02T07:14:15;94055.13;;;26.33;58.88
11971;BME280;6045;42.682;23.294;2023-07-02T07:16:43;94057.16;;;26.36;58.16
11971;BME280;6045;42.682;23.294;2023-07-02T07:19:15;94059.41;;;25.98;57.55
11971;BME280;6045;42.682;23.294;2023-07-02T07:21:44;94054.53;;;25.70;57.43
11971;BME280;6045;42.682;23.294;2023-07-02T07:24:10;94054.53;;;25.70;58.53
11971;BME280;6045;42.682;23.294;2023-07-02T07:26:37;94060.59;;;25.76;57.93
11971;BME280;6045;42.682;23.294;2023-07-02T07:29:04;94060.47;;;25.72;58.10
11971;BME280;6045;42.682;23.294;2023-07-02T07:31:31;94064.47;;;25.75;58.41
11971;BME280;6045;42.682;23.294;2023-07-02T07:33:57;94052.00;;;25.65;59.07
11971;BME280;6045;42.682;23.294;2023-07-02T07:36:24;94049.38;;;25.36;59.89
11971;BME280;6045;42.682;23.294;2023-07-02T07:38:52;94048.97;;;25.05;60.51
11971;BME280;6045;42.682;23.294;2023-07-02T07:41:19;94043.72;;;25.00;62.46
11971;BME280;6045;42.682;23.294;2023-07-02T07:43:46;94040.50;;;24.98;60.81
11971;BME280;6045;42.682;23.294;2023-07-02T07:46:12;94045.91;;;25.27;60.80
11971;BME280;6045;42.682;23.294;2023-07-02T07:48:39;94049.72;;;25.67;59.50
11971;BME280;6045;42.682;23.294;2023-07-02T07:51:06;94050.44;;;25.89;57.95
11971;BME280;6045;42.682;23.294;2023-07-02T07:53:32;94042.91;;;26.18;57.37
11971;BME280;6045;42.682;23.294;2023-07-02T07:56:00;94046.56;;;26.46;56.84
11971;BME280;6045;42.682;23.294;2023-07-02T07:58:27;94045.97;;;26.17;57.00
11971;BME280;6045;42.682;23.294;2023-07-02T08:00:54;94049.63;;;26.45;57.62
11971;BME280;6045;42.682;23.294;2023-07-02T08:03:21;94060.59;;;26.57;55.88
11971;BME280;6045;42.682;23.294;2023-07-02T08:05:48;94054.88;;;26.74;55.11
11971;BME280;6045;42.682;23.294;2023-07-02T08:08:14;94056.97;;;26.89;55.73
11971;BME280;6045;42.682;23.294;2023-07-02T08:10:41;94050.69;;;25.96;55.79
11971;BME280;6045;42.682;23.294;2023-07-02T08:13:09;94065.06;;;25.80;58.26
11971;BME280;6045;42.682;23.294;2023-07-02T08:15:37;94051.91;;;26.31;57.05
11971;BME280;6045;42.682;23.294;2023-07-02T08:18:04;94055.03;;;26.78;55.62
11971;BME280;6045;42.682;23.294;2023-07-02T08:20:32;94056.66;;;27.19;54.60
11971;BME280;6045;42.682;23.294;2023-07-02T08:22:59;94051.16;;;27.58;52.87
11971;BME280;6045;42.682;23.294;2023-07-02T08:25:28;94048.41;;;27.86;52.77
11971;BME280;6045;42.682;23.294;2023-07-02T08:27:55;94056.25;;;28.00;51.27
11971;BME280;6045;42.682;23.294;2023-07-02T08:30:23;94053.81;;;27.98;51.87
11971;BME280;6045;42.682;23.294;2023-07-02T08:32:50;94050.06;;;28.03;52.01
11971;BME280;6045;42.682;23.294;2023-07-02T08:35:19;94052.38;;;28.16;50.75
11971;BME280;6045;42.682;23.294;2023-07-02T08:37:46;94048.38;;;28.29;50.49
11971;BME280;6045;42.682;23.294;2023-07-02T08:40:17;94046.88;;;28.32;51.34
11971;BME280;6045;42.682;23.294;2023-07-02T08:42:45;94045.19;;;28.27;51.05
11971;BME280;6045;42.682;23.294;2023-07-02T08:45:13;94043.16;;;28.40;50.80
11971;BME280;6045;42.682;23.294;2023-07-02T08:47:43;94048.56;;;28.36;51.53
11971;BME280;6045;42.682;23.294;2023-07-02T08:50:11;94048.81;;;28.16;51.70
11971;BME280;6045;42.682;23.294;2023-07-02T08:52:40;94046.19;;;26.96;53.34
11971;BME280;6045;42.682;23.294;2023-07-02T08:55:08;94054.56;;;26.39;56.18
11971;BME280;6045;42.682;23.294;2023-07-02T08:57:35;94042.00;;;26.14;56.77
11971;BME280;6045;42.682;23.294;2023-07-02T09:00:06;94042.69;;;26.23;57.23
11971;BME280;6045;42.682;23.294;2023-07-02T09:02:35;94048.06;;;26.56;55.90
11971;BME280;6045;42.682;23.294;2023-07-02T09:05:04;94041.13;;;27.10;54.49
11971;BME280;6045;42.682;23.294;2023-07-02T09:07:31;94042.47;;;27.56;52.67
11971;BME280;6045;42.682;23.294;2023-07-02T09:09:58;94051.56;;;27.45;53.00
11971;BME280;6045;42.682;23.294;2023-07-02T09:12:25;94038.28;;;27.47;52.73
11971;BME280;6045;42.682;23.294;2023-07-02T09:14:56;94037.13;;;27.75;52.96
11971;BME280;6045;42.682;23.294;2023-07-02T09:17:27;94038.97;;;27.99;52.38
11971;BME280;6045;42.682;23.294;2023-07-02T09:19:55;94040.75;;;28.23;51.09
11971;BME280;6045;42.682;23.294;2023-07-02T09:22:23;94036.69;;;28.32;49.93
11971;BME280;6045;42.682;23.294;2023-07-02T09:24:53;94026.13;;;28.19;51.30
11971;BME280;6045;42.682;23.294;2023-07-02T09:27:20;94024.34;;;28.11;51.18
11971;BME280;6045;42.682;23.294;2023-07-02T09:29:50;94027.56;;;28.28;52.19
11971;BME280;6045;42.682;23.294;2023-07-02T09:32:24;94030.81;;;28.18;51.23
11971;BME280;6045;42.682;23.294;2023-07-02T09:34:54;94036.06;;;28.23;51.50
11971;BME280;6045;42.682;23.294;2023-07-02T09:37:22;94033.91;;;28.48;50.60
11971;BME280;6045;42.682;23.294;2023-07-02T09:39:50;94032.50;;;28.54;49.77
11971;BME280;6045;42.682;23.294;2023-07-02T09:42:17;94026.41;;;28.61;49.97
11971;BME280;6045;42.682;23.294;2023-07-02T09:44:45;94023.72;;;28.48;50.40
11971;BME280;6045;42.682;23.294;2023-07-02T09:47:13;94029.91;;;28.45;49.92
11971;BME280;6045;42.682;23.294;2023-07-02T09:49:45;94033.50;;;28.30;50.81
11971;BME280;6045;42.682;23.294;2023-07-02T09:52:14;94020.63;;;28.19;50.51
11971;BME280;6045;42.682;23.294;2023-07-02T09:54:42;94017.78;;;28.46;50.21
11971;BME280;6045;42.682;23.294;2023-07-02T09:57:09;94019.56;;;28.55;49.11
11971;BME280;6045;42.682;23.294;2023-07-02T09:59:37;94020.78;;;28.73;49.75
11971;BME280;6045;42.682;23.294;2023-07-02T10:02:04;94019.50;;;28.86;49.56
11971;BME280;6045;42.682;23.294;2023-07-02T10:04:39;94016.56;;;29.29;47.74
11971;BME280;6045;42.682;23.294;2023-07-02T10:07:07;94018.28;;;29.37;49.43
11971;BME280;6045;42.682;23.294;2023-07-02T10:09:37;94009.50;;;29.70;46.37
11971;BME280;6045;42.682;23.294;2023-07-02T10:12:20;94011.59;;;29.96;44.99
11971;BME280;6045;42.682;23.294;2023-07-02T10:14:48;94010.25;;;29.86;45.41
11971;BME280;6045;42.682;23.294;2023-07-02T10:17:25;94007.56;;;29.32;46.92
11971;BME280;6045;42.682;23.294;2023-07-02T10:19:53;94001.13;;;28.90;49.00
11971;BME280;6045;42.682;23.294;2023-07-02T10:22:41;93991.84;;;28.98;48.67
11971;BME280;6045;42.682;23.294;2023-07-02T10:25:23;93984.25;;;28.91;47.81
11971;BME280;6045;42.682;23.294;2023-07-02T10:27:52;93985.06;;;29.11;47.20
11971;BME280;6045;42.682;23.294;2023-07-02T10:30:18;93985.53;;;29.32;45.48
11971;BME280;6045;42.682;23.294;2023-07-02T10:33:06;93987.25;;;29.21;48.61
11971;BME280;6045;42.682;23.294;2023-07-02T10:35:34;93981.84;;;29.25;43.74
11971;BME280;6045;42.682;23.294;2023-07-02T10:38:01;93988.69;;;29.15;44.74
11971;BME280;6045;42.682;23.294;2023-07-02T10:40:29;93992.81;;;29.05;44.87
11971;BME280;6045;42.682;23.294;2023-07-02T10:42:57;93991.72;;;28.91;45.11
11971;BME280;6045;42.682;23.294;2023-07-02T10:45:31;93993.41;;;29.14;45.42
11971;BME280;6045;42.682;23.294;2023-07-02T10:47:58;93985.59;;;29.55;44.79
11971;BME280;6045;42.682;23.294;2023-07-02T10:50:26;93984.03;;;29.96;42.94
11971;BME280;6045;42.682;23.294;2023-07-02T10:52:53;93983.47;;;30.09;42.51
11971;BME280;6045;42.682;23.294;2023-07-02T10:55:23;93974.22;;;30.21;44.12
11971;BME280;6045;42.682;23.294;2023-07-02T10:57:52;93975.00;;;30.44;44.63
11971;BME280;6045;42.682;23.294;2023-07-02T11:00:30;93975.44;;;30.72;43.60
11971;BME280;6045;42.682;23.294;2023-07-02T11:02:57;93975.84;;;30.97;43.66
11971;BME280;6045;42.682;23.294;2023-07-02T11:05:24;93969.69;;;31.10;42.24
11971;BME280;6045;42.682;23.294;2023-07-02T11:07:51;93966.78;;;31.00;41.76
11971;BME280;6045;42.682;23.294;2023-07-02T11:10:22;93964.44;;;31.32;42.21
11971;BME280;6045;42.682;23.294;2023-07-02T11:12:50;93973.22;;;31.41;41.80
11971;BME280;6045;42.682;23.294;2023-07-02T11:15:17;93973.81;;;31.24;41.64
11971;BME280;6045;42.682;23.294;2023-07-02T11:17:45;93969.88;;;31.25;40.40
11971;BME280;6045;42.682;23.294;2023-07-02T11:20:13;93972.06;;;31.12;40.61
11971;BME280;6045;42.682;23.294;2023-07-02T11:22:40;93970.13;;;30.86;42.51
11971;BME280;6045;42.682;23.294;2023-07-02T11:25:15;93967.50;;;30.93;43.43
11971;BME280;6045;42.682;23.294;2023-07-02T11:27:43;93971.06;;;30.94;42.12
11971;BME280;6045;42.682;23.294;2023-07-02T11:30:11;93982.03;;;30.90;43.19
11971;BME280;6045;42.682;23.294;2023-07-02T11:32:50;93997.63;;;30.79;43.37
11971;BME280;6045;42.682;23.294;2023-07-02T11:35:17;93996.38;;;30.51;45.30
11971;BME280;6045;42.682;23.294;2023-07-02T11:37:44;94004.44;;;30.59;46.67
11971;BME280;6045;42.682;23.294;2023-07-02T11:40:14;93994.81;;;30.50;47.15
11971;BME280;6045;42.682;23.294;2023-07-02T11:42:42;93986.50;;;30.27;46.25
11971;BME280;6045;42.682;23.294;2023-07-02T11:45:09;93995.84;;;30.19;45.65
11971;BME280;6045;42.682;23.294;2023-07-02T11:47:38;93991.13;;;29.97;45.94
11971;BME280;6045;42.682;23.294;2023-07-02T11:50:07;93998.53;;;29.73;45.61
11971;BME280;6045;42.682;23.294;2023-07-02T11:52:34;93997.25;;;29.67;47.32
11971;BME280;6045;42.682;23.294;2023-07-02T11:55:01;93996.31;;;29.79;45.65
11971;BME280;6045;42.682;23.294;2023-07-02T11:57:28;93991.88;;;29.74;43.53
11971;BME280;6045;42.682;23.294;2023-07-02T11:59:54;93996.75;;;29.43;45.60
11971;BME280;6045;42.682;23.294;2023-07-02T12:02:21;93996.94;;;29.15;45.27
11971;BME280;6045;42.682;23.294;2023-07-02T12:04:48;93995.41;;;28.48;44.87
11971;BME280;6045;42.682;23.294;2023-07-02T12:07:16;94000.03;;;27.82;47.49
11971;BME280;6045;42.682;23.294;2023-07-02T12:09:43;93998.94;;;27.43;50.06
11971;BME280;6045;42.682;23.294;2023-07-02T12:12:10;94006.13;;;27.20;51.98
11971;BME280;6045;42.682;23.294;2023-07-02T12:14:37;94000.59;;;26.92;52.08
11971;BME280;6045;42.682;23.294;2023-07-02T12:17:07;94008.72;;;26.52;54.82
11971;BME280;6045;42.682;23.294;2023-07-02T12:19:33;94005.22;;;26.39;55.73
11971;BME280;6045;42.682;23.294;2023-07-02T12:22:00;94005.22;;;26.39;56.29
11971;BME280;6045;42.682;23.294;2023-07-02T12:24:28;94013.94;;;25.85;58.46
11971;BME280;6045;42.682;23.294;2023-07-02T12:26:55;94017.13;;;25.87;60.65
11971;BME280;6045;42.682;23.294;2023-07-02T12:29:22;94014.03;;;25.76;62.75
11971;BME280;6045;42.682;23.294;2023-07-02T12:31:48;94005.03;;;25.75;60.92
11971;BME280;6045;42.682;23.294;2023-07-02T12:34:15;93996.63;;;25.93;62.72
11971;BME280;6045;42.682;23.294;2023-07-02T12:36:42;93999.03;;;26.06;63.38
11971;BME280;6045;42.682;23.294;2023-07-02T12:39:09;94004.25;;;25.99;62.69
11971;BME280;6045;42.682;23.294;2023-07-02T12:41:37;94009.16;;;25.94;62.54
11971;BME280;6045;42.682;23.294;2023-07-02T12:44:04;94004.84;;;25.93;64.62
11971;BME280;6045;42.682;23.294;2023-07-02T12:46:31;94001.44;;;26.20;65.10
11971;BME280;6045;42.682;23.294;2023-07-02T12:48:58;94005.06;;;26.60;64.00
11971;BME280;6045;42.682;23.294;2023-07-02T12:51:24;94003.38;;;26.80;62.59
11971;BME280;6045;42.682;23.294;2023-07-02T12:53:51;94008.16;;;26.83;58.83
11971;BME280;6045;42.682;23.294;2023-07-02T12:56:18;94003.38;;;26.80;60.45
11971;BME280;6045;42.682;23.294;2023-07-02T12:58:46;94001.97;;;26.86;60.27
11971;BME280;6045;42.682;23.294;2023-07-02T13:01:13;93999.34;;;26.89;59.55
11971;BME280;6045;42.682;23.294;2023-07-02T13:03:45;93990.03;;;27.06;56.55